Aérodrome :
LOGIN :

S'inscrire | Disclaimer

   EN    FR    IT 

 










Légende :    VFR   VFR Marginal   IFR   IFR Intensif   IFR Très Intensif
Visi : 
Plafond : 
>= 8 km
>= 3000ft
5 à 8 km
1000 à 3000 ft
1500m à 5 km
500 à 1000 ft
800 à 1500m
200 à 500 ft
< 800m
< 200 ft
Symboles :   Orages  Brouillard  Fortes neiges  Fortes précipitations  Vent > 20 kt
SIGMETs :   Divers  Orages  Givrage  Turbulence  Onde Orograph.  Cendres Volcan.






- Altitude de l'aérodrome : 245 ft
- Code IATA : BIQ


LFBZ - Biarritz

DERNIER METAR :
  • 231100Z AUTO 36003KT 310V050 CAVOK 11/08 Q1034 NOSIG

METARs EXPIRÉS :
  • 231030Z AUTO VRB02KT 4700 BR BKN003 10/08 Q1034 BECMG CAVOK
  • 231000Z AUTO 14003KT 070V200 2600 BR OVC002 08/08 Q1034 BECMG CAVOK
  • 230930Z AUTO 11003KT 070V160 1300 1100 R09/1400U R27/1500N BR OVC002 07/07 Q1034 BECMG CAVOK
  • 230900Z AUTO 04004KT 010V090 1700 1000 R09/1700D R27/1600D BR OVC002 07/07 Q1034 BECMG CAVOK
  • 230830Z AUTO 06004KT 030V100 0550 0450 R09/1100U R27/0800N FG VV/// 07/07 Q1034 BECMG CAVOK

TAF AMD TAF LFBZ
Valide du 23 à 08h jusqu'au 24 à 06h UTC


230800Z 2308/2406 12004KT 8000 BKN015
TEMPO 2308/2310 BKN005
TEMPO 2308/2309 0200 FG VV///
BECMG 2309/2311 CAVOK
BECMG 2315/2317 1500 MIFG BKN004
PROB30 2320/2406 1000 MIFG OVC002



MET'MAP, la Météo Aéronautique d'un coup d'oeil ! - Copyright ORBIFLY Décembre 2007 - Disclaimer

ORBIFLY MET'MAP TEAM :

Programmation & Développement : Alexandra Zaïnal
Sur une idée originale de : Baudouin d'Aumeries
Assistance à la programmation : Marc-Olivier Méhu
Soutien technique & logistique : Manuel Goepfert

Contact : metmap@orbifly.com




SOURCES & CREDITS :

   NOAA